Terminal Aerodrome Forecast
Issued by NWS

Home | Current Version | Previous Version | Text Only | Print | Product List | Glossary On
Versions: 1 2 3 4 5 6 7 8 9 10 11 12 13 14 15 16 17 18 19 20 21 22 23 24 25
000
FTUS44 KOUN 270523
TAFWWR
TAF
KWWR 270523Z 2706/2806 33010KT P6SM SCT025 BKN100
      TEMPO 2706/2710 BKN025
     FM271500 32009KT P6SM SCT040 BKN120
     FM280000 31007KT P6SM SKC=

USA.gov is the U.S. government's official web portal to all federal, state and local government web resources and services.